sensor_id;sensor_type;location;lat;lon;timestamp;pressure;altitude;pressure_sealevel;temperature;humidity
30967;BME280;17649;51.836;8.330;2022-10-23T00:01:45;101013.59;;;11.27;100.00
30967;BME280;17649;51.836;8.330;2022-10-23T00:04:49;101012.06;;;11.23;100.00
30967;BME280;17649;51.836;8.330;2022-10-23T00:07:54;101018.94;;;11.24;100.00
30967;BME280;17649;51.836;8.330;2022-10-23T00:10:54;101002.41;;;11.09;100.00
30967;BME280;17649;51.836;8.330;2022-10-23T00:13:57;101011.69;;;11.13;100.00
30967;BME280;17649;51.836;8.330;2022-10-23T00:16:58;101010.94;;;11.11;100.00
30967;BME280;17649;51.836;8.330;2022-10-23T00:19:59;101000.75;;;11.08;100.00
30967;BME280;17649;51.836;8.330;2022-10-23T00:23:00;101015.13;;;11.14;100.00
30967;BME280;17649;51.836;8.330;2022-10-23T00:26:01;101005.25;;;11.04;100.00
30967;BME280;17649;51.836;8.330;2022-10-23T00:29:02;101016.06;;;10.95;100.00
30967;BME280;17649;51.836;8.330;2022-10-23T00:32:02;101013.03;;;10.87;100.00
30967;BME280;17649;51.836;8.330;2022-10-23T00:35:03;101018.41;;;10.83;100.00
30967;BME280;17649;51.836;8.330;2022-10-23T00:38:03;101016.22;;;10.75;100.00
30967;BME280;17649;51.836;8.330;2022-10-23T00:41:05;101016.50;;;10.69;100.00
30967;BME280;17649;51.836;8.330;2022-10-23T00:44:07;101013.41;;;10.62;100.00
30967;BME280;17649;51.836;8.330;2022-10-23T00:47:08;101017.25;;;10.54;100.00
30967;BME280;17649;51.836;8.330;2022-10-23T00:50:09;101025.19;;;10.51;100.00
30967;BME280;17649;51.836;8.330;2022-10-23T00:53:10;101021.91;;;10.47;100.00
30967;BME280;17649;51.836;8.330;2022-10-23T00:56:11;101020.38;;;10.43;100.00
30967;BME280;17649;51.836;8.330;2022-10-23T00:59:12;101022.34;;;10.38;100.00
30967;BME280;17649;51.836;8.330;2022-10-23T01:02:13;101010.53;;;10.32;100.00
30967;BME280;17649;51.836;8.330;2022-10-23T01:05:13;101004.75;;;10.27;100.00
30967;BME280;17649;51.836;8.330;2022-10-23T01:08:36;101021.31;;;10.23;100.00
30967;BME280;17649;51.836;8.330;2022-10-23T01:11:38;101014.59;;;10.19;100.00
30967;BME280;17649;51.836;8.330;2022-10-23T01:14:46;101016.50;;;10.15;100.00
30967;BME280;17649;51.836;8.330;2022-10-23T01:17:55;101014.88;;;10.13;100.00
30967;BME280;17649;51.836;8.330;2022-10-23T01:20:59;101013.34;;;10.09;100.00
30967;BME280;17649;51.836;8.330;2022-10-23T01:27:20;101011.88;;;10.03;100.00
30967;BME280;17649;51.836;8.330;2022-10-23T01:30:21;101006.84;;;10.00;100.00
30967;BME280;17649;51.836;8.330;2022-10-23T01:33:26;101000.84;;;10.00;100.00
30967;BME280;17649;51.836;8.330;2022-10-23T01:36:28;101007.84;;;9.98;100.00
30967;BME280;17649;51.836;8.330;2022-10-23T01:39:33;101001.13;;;9.94;100.00
30967;BME280;17649;51.836;8.330;2022-10-23T01:42:37;100999.53;;;9.91;100.00
30967;BME280;17649;51.836;8.330;2022-10-23T01:45:42;100998.00;;;9.87;100.00
30967;BME280;17649;51.836;8.330;2022-10-23T01:48:53;100999.75;;;9.86;100.00
30967;BME280;17649;51.836;8.330;2022-10-23T01:51:54;101001.56;;;9.84;100.00
30967;BME280;17649;51.836;8.330;2022-10-23T01:54:56;101002.53;;;9.82;100.00
30967;BME280;17649;51.836;8.330;2022-10-23T01:57:58;101002.66;;;9.79;100.00
30967;BME280;17649;51.836;8.330;2022-10-23T02:01:00;100997.63;;;9.76;100.00
30967;BME280;17649;51.836;8.330;2022-10-23T02:04:02;100985.69;;;9.73;100.00
30967;BME280;17649;51.836;8.330;2022-10-23T02:07:04;100980.69;;;9.70;100.00
30967;BME280;17649;51.836;8.330;2022-10-23T02:10:05;100981.59;;;9.69;100.00
30967;BME280;17649;51.836;8.330;2022-10-23T02:13:26;100988.56;;;9.67;100.00
30967;BME280;17649;51.836;8.330;2022-10-23T02:16:36;100968.78;;;9.66;100.00
30967;BME280;17649;51.836;8.330;2022-10-23T02:19:42;100971.31;;;9.68;100.00
30967;BME280;17649;51.836;8.330;2022-10-23T02:22:54;100963.75;;;9.63;100.00
30967;BME280;17649;51.836;8.330;2022-10-23T02:28:59;100958.13;;;9.55;100.00
30967;BME280;17649;51.836;8.330;2022-10-23T02:32:03;100955.66;;;9.52;100.00
30967;BME280;17649;51.836;8.330;2022-10-23T02:35:05;100957.34;;;9.53;100.00
30967;BME280;17649;51.836;8.330;2022-10-23T02:38:27;100954.78;;;9.53;100.00
30967;BME280;17649;51.836;8.330;2022-10-23T02:48:03;100946.38;;;9.48;100.00
30967;BME280;17649;51.836;8.330;2022-10-23T02:51:06;100941.34;;;9.45;100.00
30967;BME280;17649;51.836;8.330;2022-10-23T02:54:21;100938.00;;;9.43;100.00
30967;BME280;17649;51.836;8.330;2022-10-23T02:57:31;100926.75;;;9.44;100.00
30967;BME280;17649;51.836;8.330;2022-10-23T03:00:34;100929.34;;;9.44;100.00
30967;BME280;17649;51.836;8.330;2022-10-23T03:03:38;100925.78;;;9.46;100.00
30967;BME280;17649;51.836;8.330;2022-10-23T03:06:40;100925.84;;;9.45;100.00
30967;BME280;17649;51.836;8.330;2022-10-23T03:09:41;100924.94;;;9.46;100.00
30967;BME280;17649;51.836;8.330;2022-10-23T03:12:41;100921.53;;;9.45;100.00
30967;BME280;17649;51.836;8.330;2022-10-23T03:15:42;100919.78;;;9.46;100.00
30967;BME280;17649;51.836;8.330;2022-10-23T03:18:42;100911.28;;;9.44;100.00
30967;BME280;17649;51.836;8.330;2022-10-23T03:21:42;100912.31;;;9.40;100.00
30967;BME280;17649;51.836;8.330;2022-10-23T03:24:43;100918.41;;;9.39;100.00
30967;BME280;17649;51.836;8.330;2022-10-23T03:27:43;100914.00;;;9.41;100.00
30967;BME280;17649;51.836;8.330;2022-10-23T03:30:43;100913.00;;;9.43;100.00
30967;BME280;17649;51.836;8.330;2022-10-23T03:33:44;100919.78;;;9.46;100.00
30967;BME280;17649;51.836;8.330;2022-10-23T03:36:44;100915.38;;;9.48;100.00
30967;BME280;17649;51.836;8.330;2022-10-23T03:39:44;100924.78;;;9.49;100.00
30967;BME280;17649;51.836;8.330;2022-10-23T03:42:44;100921.97;;;9.55;100.00
30967;BME280;17649;51.836;8.330;2022-10-23T03:45:45;100920.22;;;9.55;100.00
30967;BME280;17649;51.836;8.330;2022-10-23T03:48:45;100919.28;;;9.56;100.00
30967;BME280;17649;51.836;8.330;2022-10-23T03:51:45;100908.13;;;9.56;100.00
30967;BME280;17649;51.836;8.330;2022-10-23T03:54:50;100916.78;;;9.55;100.00
30967;BME280;17649;51.836;8.330;2022-10-23T03:57:51;100908.28;;;9.53;100.00
30967;BME280;17649;51.836;8.330;2022-10-23T04:00:51;100898.91;;;9.50;100.00
30967;BME280;17649;51.836;8.330;2022-10-23T04:03:52;100893.88;;;9.47;100.00
30967;BME280;17649;51.836;8.330;2022-10-23T04:06:52;100900.78;;;9.47;100.00
30967;BME280;17649;51.836;8.330;2022-10-23T04:09:52;100898.13;;;9.48;100.00
30967;BME280;17649;51.836;8.330;2022-10-23T04:12:52;100887.72;;;9.50;100.00
30967;BME280;17649;51.836;8.330;2022-10-23T04:15:53;100888.47;;;9.52;100.00
30967;BME280;17649;51.836;8.330;2022-10-23T04:18:53;100881.53;;;9.54;100.00
30967;BME280;17649;51.836;8.330;2022-10-23T04:21:53;100887.47;;;9.56;100.00
30967;BME280;17649;51.836;8.330;2022-10-23T04:24:53;100883.19;;;9.55;100.00
30967;BME280;17649;51.836;8.330;2022-10-23T04:27:54;100880.63;;;9.55;100.00
30967;BME280;17649;51.836;8.330;2022-10-23T04:30:54;100883.13;;;9.56;100.00
30967;BME280;17649;51.836;8.330;2022-10-23T04:33:54;100878.03;;;9.55;100.00
30967;BME280;17649;51.836;8.330;2022-10-23T04:36:55;100873.84;;;9.52;100.00
30967;BME280;17649;51.836;8.330;2022-10-23T04:39:55;100874.88;;;9.48;100.00
30967;BME280;17649;51.836;8.330;2022-10-23T04:42:55;100879.97;;;9.50;100.00
30967;BME280;17649;51.836;8.330;2022-10-23T04:45:55;100873.84;;;9.52;100.00
30967;BME280;17649;51.836;8.330;2022-10-23T04:48:55;100877.13;;;9.56;100.00
30967;BME280;17649;51.836;8.330;2022-10-23T04:51:56;100880.31;;;9.61;100.00
30967;BME280;17649;51.836;8.330;2022-10-23T04:54:56;100882.69;;;9.66;100.00
30967;BME280;17649;51.836;8.330;2022-10-23T04:57:56;100886.06;;;9.68;100.00
30967;BME280;17649;51.836;8.330;2022-10-23T05:00:56;100892.06;;;9.68;100.00
30967;BME280;17649;51.836;8.330;2022-10-23T05:03:57;100885.22;;;9.67;100.00
30967;BME280;17649;51.836;8.330;2022-10-23T05:06:57;100874.88;;;9.67;100.00
30967;BME280;17649;51.836;8.330;2022-10-23T05:09:57;100860.22;;;9.68;100.00
30967;BME280;17649;51.836;8.330;2022-10-23T05:12:58;100855.72;;;9.71;100.00
30967;BME280;17649;51.836;8.330;2022-10-23T05:15:58;100841.75;;;9.75;100.00
30967;BME280;17649;51.836;8.330;2022-10-23T05:18:59;100846.59;;;9.81;100.00
30967;BME280;17649;51.836;8.330;2022-10-23T05:22:00;100841.16;;;9.88;100.00
30967;BME280;17649;51.836;8.330;2022-10-23T05:25:00;100833.19;;;9.92;100.00
30967;BME280;17649;51.836;8.330;2022-10-23T05:28:01;100838.00;;;10.00;100.00
30967;BME280;17649;51.836;8.330;2022-10-23T05:31:02;100837.81;;;10.03;100.00
30967;BME280;17649;51.836;8.330;2022-10-23T05:34:03;100840.25;;;10.06;100.00
30967;BME280;17649;51.836;8.330;2022-10-23T05:37:04;100833.25;;;10.08;100.00
30967;BME280;17649;51.836;8.330;2022-10-23T05:40:05;100835.75;;;10.09;100.00
30967;BME280;17649;51.836;8.330;2022-10-23T05:43:05;100822.91;;;10.08;100.00
30967;BME280;17649;51.836;8.330;2022-10-23T05:46:06;100836.75;;;10.07;100.00
30967;BME280;17649;51.836;8.330;2022-10-23T05:49:06;100830.84;;;10.05;100.00
30967;BME280;17649;51.836;8.330;2022-10-23T05:52:09;100831.31;;;10.13;100.00
30967;BME280;17649;51.836;8.330;2022-10-23T05:55:09;100828.56;;;10.16;100.00
30967;BME280;17649;51.836;8.330;2022-10-23T05:58:10;100826.72;;;10.18;100.00
30967;BME280;17649;51.836;8.330;2022-10-23T06:01:12;100820.56;;;10.21;100.00
30967;BME280;17649;51.836;8.330;2022-10-23T06:04:17;100818.69;;;10.24;100.00
30967;BME280;17649;51.836;8.330;2022-10-23T06:07:21;100821.19;;;10.26;100.00
30967;BME280;17649;51.836;8.330;2022-10-23T06:10:24;100815.19;;;10.25;100.00
30967;BME280;17649;51.836;8.330;2022-10-23T06:13:24;100813.38;;;10.27;100.00
30967;BME280;17649;51.836;8.330;2022-10-23T06:16:25;100811.53;;;10.29;100.00
30967;BME280;17649;51.836;8.330;2022-10-23T06:19:25;100804.63;;;10.30;100.00
30967;BME280;17649;51.836;8.330;2022-10-23T06:22:27;100810.47;;;10.33;100.00
30967;BME280;17649;51.836;8.330;2022-10-23T06:25:27;100814.56;;;10.37;100.00
30967;BME280;17649;51.836;8.330;2022-10-23T06:28:27;100802.38;;;10.39;100.00
30967;BME280;17649;51.836;8.330;2022-10-23T06:31:28;100810.97;;;10.40;100.00
30967;BME280;17649;51.836;8.330;2022-10-23T06:34:29;100816.78;;;10.45;100.00
30967;BME280;17649;51.836;8.330;2022-10-23T06:37:29;100812.34;;;10.47;100.00
30967;BME280;17649;51.836;8.330;2022-10-23T06:40:29;100807.59;;;10.55;100.00
30967;BME280;17649;51.836;8.330;2022-10-23T06:43:29;100806.63;;;10.58;100.00
30967;BME280;17649;51.836;8.330;2022-10-23T06:46:30;100808.97;;;10.62;100.00
30967;BME280;17649;51.836;8.330;2022-10-23T06:49:32;100807.97;;;10.65;100.00
30967;BME280;17649;51.836;8.330;2022-10-23T06:52:32;100808.41;;;10.73;100.00
30967;BME280;17649;51.836;8.330;2022-10-23T06:55:32;100807.25;;;10.79;100.00
30967;BME280;17649;51.836;8.330;2022-10-23T06:58:33;100806.06;;;10.84;100.00
30967;BME280;17649;51.836;8.330;2022-10-23T07:01:34;100803.00;;;10.93;100.00
30967;BME280;17649;51.836;8.330;2022-10-23T07:04:34;100794.75;;;11.02;100.00
30967;BME280;17649;51.836;8.330;2022-10-23T07:07:35;100792.41;;;11.14;100.00
30967;BME280;17649;51.836;8.330;2022-10-23T07:10:35;100781.53;;;11.23;100.00
30967;BME280;17649;51.836;8.330;2022-10-23T07:13:36;100787.81;;;11.34;100.00
30967;BME280;17649;51.836;8.330;2022-10-23T07:16:37;100779.59;;;11.42;100.00
30967;BME280;17649;51.836;8.330;2022-10-23T07:19:41;100782.59;;;11.50;100.00
30967;BME280;17649;51.836;8.330;2022-10-23T07:22:42;100778.31;;;11.65;100.00
30967;BME280;17649;51.836;8.330;2022-10-23T07:25:45;100771.50;;;11.78;100.00
30967;BME280;17649;51.836;8.330;2022-10-23T07:28:46;100780.00;;;11.96;100.00
30967;BME280;17649;51.836;8.330;2022-10-23T07:31:47;100785.97;;;12.12;100.00
30967;BME280;17649;51.836;8.330;2022-10-23T07:34:48;100767.44;;;12.18;100.00
30967;BME280;17649;51.836;8.330;2022-10-23T07:37:48;100783.75;;;12.35;100.00
30967;BME280;17649;51.836;8.330;2022-10-23T07:40:49;100767.66;;;12.44;100.00
30967;BME280;17649;51.836;8.330;2022-10-23T07:43:50;100794.44;;;12.59;100.00
30967;BME280;17649;51.836;8.330;2022-10-23T07:46:50;100794.53;;;12.71;100.00
30967;BME280;17649;51.836;8.330;2022-10-23T07:49:51;100792.38;;;12.78;100.00
30967;BME280;17649;51.836;8.330;2022-10-23T07:52:51;100772.16;;;12.83;100.00
30967;BME280;17649;51.836;8.330;2022-10-23T07:56:00;100785.78;;;13.01;100.00
30967;BME280;17649;51.836;8.330;2022-10-23T07:59:01;100777.41;;;13.10;100.00
30967;BME280;17649;51.836;8.330;2022-10-23T08:02:01;100772.13;;;13.26;100.00
30967;BME280;17649;51.836;8.330;2022-10-23T08:05:03;100769.84;;;13.34;100.00
30967;BME280;17649;51.836;8.330;2022-10-23T08:08:03;100765.31;;;13.50;100.00
30967;BME280;17649;51.836;8.330;2022-10-23T08:11:09;100766.09;;;13.65;100.00
30967;BME280;17649;51.836;8.330;2022-10-23T08:17:58;100756.91;;;13.99;100.00
30967;BME280;17649;51.836;8.330;2022-10-23T08:21:01;100742.44;;;14.08;100.00
30967;BME280;17649;51.836;8.330;2022-10-23T08:24:08;100741.00;;;14.16;100.00
30967;BME280;17649;51.836;8.330;2022-10-23T08:27:12;100740.16;;;14.28;100.00
30967;BME280;17649;51.836;8.330;2022-10-23T08:30:13;100738.78;;;14.23;100.00
30967;BME280;17649;51.836;8.330;2022-10-23T08:33:14;100726.50;;;14.25;100.00
30967;BME280;17649;51.836;8.330;2022-10-23T08:36:20;100739.63;;;14.49;100.00
30967;BME280;17649;51.836;8.330;2022-10-23T08:39:20;100732.94;;;14.57;100.00
30967;BME280;17649;51.836;8.330;2022-10-23T08:42:25;100733.75;;;14.71;100.00
30967;BME280;17649;51.836;8.330;2022-10-23T08:45:37;100731.72;;;14.87;100.00
30967;BME280;17649;51.836;8.330;2022-10-23T08:48:55;100727.09;;;15.03;
30967;BME280;17649;51.836;8.330;2022-10-23T08:52:27;100728.81;;;15.15;100.00
30967;BME280;17649;51.836;8.330;2022-10-23T08:55:33;100709.91;;;15.25;100.00
30967;BME280;17649;51.836;8.330;2022-10-23T08:58:54;100711.50;;;15.38;100.00
30967;BME280;17649;51.836;8.330;2022-10-23T09:09:23;100698.50;;;15.85;100.00
30967;BME280;17649;51.836;8.330;2022-10-23T09:12:30;100683.91;;;16.04;100.00
30967;BME280;17649;51.836;8.330;2022-10-23T09:15:40;100689.84;;;16.18;100.00
30967;BME280;17649;51.836;8.330;2022-10-23T09:18:42;100669.47;;;16.23;100.00
30967;BME280;17649;51.836;8.330;2022-10-23T09:21:49;100667.06;;;16.53;100.00
30967;BME280;17649;51.836;8.330;2022-10-23T09:25:01;100670.59;;;16.75;100.00
30967;BME280;17649;51.836;8.330;2022-10-23T09:28:23;100663.69;;;16.85;100.00
30967;BME280;17649;51.836;8.330;2022-10-23T09:31:51;100662.81;;;16.95;100.00
30967;BME280;17649;51.836;8.330;2022-10-23T09:34:54;100621.94;;;16.94;100.00
30967;BME280;17649;51.836;8.330;2022-10-23T09:37:55;100634.19;;;16.94;100.00
30967;BME280;17649;51.836;8.330;2022-10-23T09:44:23;100633.16;;;17.17;100.00
30967;BME280;17649;51.836;8.330;2022-10-23T09:47:24;100639.84;;;17.31;100.00
30967;BME280;17649;51.836;8.330;2022-10-23T09:50:28;100614.66;;;17.30;100.00
30967;BME280;17649;51.836;8.330;2022-10-23T09:53:58;100644.94;;;17.53;100.00
30967;BME280;17649;51.836;8.330;2022-10-23T10:00:46;100615.72;;;17.69;100.00
30967;BME280;17649;51.836;8.330;2022-10-23T10:03:49;100614.41;;;17.84;100.00
30967;BME280;17649;51.836;8.330;2022-10-23T10:07:01;100605.28;;;18.09;100.00
30967;BME280;17649;51.836;8.330;2022-10-23T10:26:39;100594.38;;;19.31;100.00
30967;BME280;17649;51.836;8.330;2022-10-23T10:33:08;100588.16;;;19.32;100.00
30967;BME280;17649;51.836;8.330;2022-10-23T10:36:29;100582.38;;;19.19;100.00
30967;BME280;17649;51.836;8.330;2022-10-23T10:46:23;100546.97;;;19.52;100.00
30967;BME280;17649;51.836;8.330;2022-10-23T10:49:33;100551.31;;;19.71;100.00
30967;BME280;17649;51.836;8.330;2022-10-23T10:52:44;100542.78;;;19.97;100.00
30967;BME280;17649;51.836;8.330;2022-10-23T10:55:50;100541.22;;;20.49;100.00
30967;BME280;17649;51.836;8.330;2022-10-23T10:59:01;100531.94;;;20.27;100.00
30967;BME280;17649;51.836;8.330;2022-10-23T11:02:25;100530.41;;;20.07;100.00
30967;BME280;17649;51.836;8.330;2022-10-23T11:08:37;100531.78;;;19.83;100.00
30967;BME280;17649;51.836;8.330;2022-10-23T11:11:39;100519.41;;;19.93;100.00
30967;BME280;17649;51.836;8.330;2022-10-23T11:14:43;100496.38;;;19.60;100.00
30967;BME280;17649;51.836;8.330;2022-10-23T11:17:47;100499.53;;;19.63;100.00
30967;BME280;17649;51.836;8.330;2022-10-23T11:31:13;100476.91;;;20.08;100.00
30967;BME280;17649;51.836;8.330;2022-10-23T11:37:32;100459.56;;;19.79;100.00
30967;BME280;17649;51.836;8.330;2022-10-23T11:40:32;100465.34;;;20.01;100.00
30967;BME280;17649;51.836;8.330;2022-10-23T11:43:48;100450.38;;;20.11;100.00
30967;BME280;17649;51.836;8.330;2022-10-23T11:47:04;100445.63;;;20.14;100.00
30967;BME280;17649;51.836;8.330;2022-10-23T11:53:37;100418.97;;;19.74;100.00
30967;BME280;17649;51.836;8.330;2022-10-23T11:56:52;100433.47;;;19.95;100.00
30967;BME280;17649;51.836;8.330;2022-10-23T12:00:00;100413.81;;;19.82;100.00
30967;BME280;17649;51.836;8.330;2022-10-23T12:03:18;100424.97;;;19.66;100.00
30967;BME280;17649;51.836;8.330;2022-10-23T12:06:25;100413.91;;;19.35;100.00
30967;BME280;17649;51.836;8.330;2022-10-23T12:09:45;100405.50;;;19.31;100.00
30967;BME280;17649;51.836;8.330;2022-10-23T12:13:25;100398.41;;;19.14;100.00
30967;BME280;17649;51.836;8.330;2022-10-23T12:16:36;100398.25;;;18.79;100.00
30967;BME280;17649;51.836;8.330;2022-10-23T12:19:47;100389.88;;;19.02;100.00
30967;BME280;17649;51.836;8.330;2022-10-23T12:26:19;100391.94;;;19.09;100.00
30967;BME280;17649;51.836;8.330;2022-10-23T12:40:16;100368.00;;;18.94;100.00
30967;BME280;17649;51.836;8.330;2022-10-23T12:43:37;100366.91;;;18.87;100.00
30967;BME280;17649;51.836;8.330;2022-10-23T12:46:46;100349.69;;;18.74;100.00
30967;BME280;17649;51.836;8.330;2022-10-23T12:50:02;100359.91;;;18.77;100.00
30967;BME280;17649;51.836;8.330;2022-10-23T12:53:05;100347.66;;;18.68;100.00
30967;BME280;17649;51.836;8.330;2022-10-23T12:56:20;100348.78;;;18.66;100.00
30967;BME280;17649;51.836;8.330;2022-10-23T12:59:27;100339.78;;;18.59;100.00
30967;BME280;17649;51.836;8.330;2022-10-23T13:02:32;100362.16;;;18.53;100.00
30967;BME280;17649;51.836;8.330;2022-10-23T13:05:33;100341.84;;;18.74;100.00
30967;BME280;17649;51.836;8.330;2022-10-23T13:08:57;100322.81;;;18.72;100.00
30967;BME280;17649;51.836;8.330;2022-10-23T13:12:25;100320.28;;;18.90;100.00
30967;BME280;17649;51.836;8.330;2022-10-23T13:15:41;100303.13;;;19.23;100.00
30967;BME280;17649;51.836;8.330;2022-10-23T13:18:53;100284.31;;;19.46;100.00
30967;BME280;17649;51.836;8.330;2022-10-23T13:21:54;100280.63;;;19.66;100.00
30967;BME280;17649;51.836;8.330;2022-10-23T13:24:55;100265.13;;;19.63;100.00
30967;BME280;17649;51.836;8.330;2022-10-23T13:34:28;100273.44;;;20.72;100.00
30967;BME280;17649;51.836;8.330;2022-10-23T13:37:29;100262.06;;;21.22;100.00
30967;BME280;17649;51.836;8.330;2022-10-23T13:40:30;100256.47;;;22.39;100.00
30967;BME280;17649;51.836;8.330;2022-10-23T13:43:34;100217.34;;;22.11;100.00
30967;BME280;17649;51.836;8.330;2022-10-23T13:46:35;100211.69;;;22.30;100.00
30967;BME280;17649;51.836;8.330;2022-10-23T13:49:35;100222.50;;;21.64;100.00
30967;BME280;17649;51.836;8.330;2022-10-23T13:52:39;100212.22;;;21.04;100.00
30967;BME280;17649;51.836;8.330;2022-10-23T13:55:42;100212.66;;;20.75;100.00
30967;BME280;17649;51.836;8.330;2022-10-23T13:58:43;100206.00;;;20.54;100.00
30967;BME280;17649;51.836;8.330;2022-10-23T14:01:44;100211.94;;;20.57;100.00
30967;BME280;17649;51.836;8.330;2022-10-23T14:04:46;100205.81;;;21.06;100.00
30967;BME280;17649;51.836;8.330;2022-10-23T14:07:47;100203.53;;;21.93;100.00
30967;BME280;17649;51.836;8.330;2022-10-23T14:10:48;100198.25;;;22.17;100.00
30967;BME280;17649;51.836;8.330;2022-10-23T14:13:49;100201.97;;;22.31;100.00
30967;BME280;17649;51.836;8.330;2022-10-23T14:16:51;100207.63;;;22.20;100.00
30967;BME280;17649;51.836;8.330;2022-10-23T14:19:52;100213.94;;;21.29;100.00
30967;BME280;17649;51.836;8.330;2022-10-23T14:22:55;100198.31;;;21.28;100.00
30967;BME280;17649;51.836;8.330;2022-10-23T14:26:06;100182.09;;;20.82;100.00
30967;BME280;17649;51.836;8.330;2022-10-23T14:29:14;100194.78;;;20.87;100.00
30967;BME280;17649;51.836;8.330;2022-10-23T14:32:14;100190.81;;;20.40;100.00
30967;BME280;17649;51.836;8.330;2022-10-23T14:35:21;100170.00;;;19.87;100.00
30967;BME280;17649;51.836;8.330;2022-10-23T14:38:22;100171.19;;;19.92;100.00
30967;BME280;17649;51.836;8.330;2022-10-23T14:41:25;100153.09;;;20.15;100.00
30967;BME280;17649;51.836;8.330;2022-10-23T14:44:26;100152.63;;;19.86;100.00
30967;BME280;17649;51.836;8.330;2022-10-23T14:47:29;100159.81;;;19.58;100.00
30967;BME280;17649;51.836;8.330;2022-10-23T14:50:36;100151.47;;;19.62;100.00
30967;BME280;17649;51.836;8.330;2022-10-23T14:53:41;100163.31;;;19.49;100.00
30967;BME280;17649;51.836;8.330;2022-10-23T14:56:42;100148.91;;;19.09;100.00
30967;BME280;17649;51.836;8.330;2022-10-23T14:59:46;100138.19;;;18.85;100.00
30967;BME280;17649;51.836;8.330;2022-10-23T15:02:50;100167.25;;;18.91;100.00
30967;BME280;17649;51.836;8.330;2022-10-23T15:05:51;100162.06;;;18.82;100.00
30967;BME280;17649;51.836;8.330;2022-10-23T15:08:54;100141.72;;;18.48;100.00
30967;BME280;17649;51.836;8.330;2022-10-23T15:11:55;100146.84;;;18.40;100.00
30967;BME280;17649;51.836;8.330;2022-10-23T15:14:58;100125.09;;;18.30;100.00
30967;BME280;17649;51.836;8.330;2022-10-23T15:17:58;100136.56;;;18.29;100.00
30967;BME280;17649;51.836;8.330;2022-10-23T15:20:59;100115.03;;;18.07;100.00
30967;BME280;17649;51.836;8.330;2022-10-23T15:24:06;100119.59;;;18.05;100.00
30967;BME280;17649;51.836;8.330;2022-10-23T15:27:07;100137.03;;;18.14;100.00
30967;BME280;17649;51.836;8.330;2022-10-23T15:30:14;100149.34;;;18.04;100.00
30967;BME280;17649;51.836;8.330;2022-10-23T15:33:14;100135.75;;;17.91;100.00
30967;BME280;17649;51.836;8.330;2022-10-23T15:36:25;100145.13;;;17.84;100.00
30967;BME280;17649;51.836;8.330;2022-10-23T15:39:28;100132.25;;;17.73;100.00
30967;BME280;17649;51.836;8.330;2022-10-23T15:42:40;100116.41;;;17.74;100.00
30967;BME280;17649;51.836;8.330;2022-10-23T15:45:41;100099.47;;;17.59;100.00
30967;BME280;17649;51.836;8.330;2022-10-23T15:48:41;100102.78;;;17.61;100.00
30967;BME280;17649;51.836;8.330;2022-10-23T15:51:42;100094.66;;;17.54;100.00
30967;BME280;17649;51.836;8.330;2022-10-23T15:54:43;100102.25;;;17.48;100.00
30967;BME280;17649;51.836;8.330;2022-10-23T15:57:44;100080.13;;;17.33;100.00
30967;BME280;17649;51.836;8.330;2022-10-23T16:00:44;100092.09;;;17.35;100.00
30967;BME280;17649;51.836;8.330;2022-10-23T16:03:44;100084.00;;;17.28;100.00
30967;BME280;17649;51.836;8.330;2022-10-23T16:06:46;100086.31;;;17.22;100.00
30967;BME280;17649;51.836;8.330;2022-10-23T16:09:47;100066.25;;;17.13;100.00
30967;BME280;17649;51.836;8.330;2022-10-23T16:12:47;100080.56;;;17.09;100.00
30967;BME280;17649;51.836;8.330;2022-10-23T16:15:48;100090.19;;;17.08;100.00
30967;BME280;17649;51.836;8.330;2022-10-23T16:18:48;100088.41;;;17.09;100.00
30967;BME280;17649;51.836;8.330;2022-10-23T16:21:48;100086.47;;;17.11;100.00
30967;BME280;17649;51.836;8.330;2022-10-23T16:24:49;100099.13;;;17.06;100.00
30967;BME280;17649;51.836;8.330;2022-10-23T16:27:49;100110.28;;;17.08;100.00
30967;BME280;17649;51.836;8.330;2022-10-23T16:30:50;100129.97;;;17.12;100.00
30967;BME280;17649;51.836;8.330;2022-10-23T16:33:51;100134.91;;;17.15;100.00
30967;BME280;17649;51.836;8.330;2022-10-23T16:36:52;100136.00;;;17.12;100.00
30967;BME280;17649;51.836;8.330;2022-10-23T16:39:53;100158.16;;;17.18;100.00
30967;BME280;17649;51.836;8.330;2022-10-23T16:42:53;100167.38;;;17.22;100.00
30967;BME280;17649;51.836;8.330;2022-10-23T16:46:07;100178.50;;;17.24;100.00
30967;BME280;17649;51.836;8.330;2022-10-23T16:49:07;100178.25;;;17.17;100.00
30967;BME280;17649;51.836;8.330;2022-10-23T16:52:08;100201.88;;;17.06;100.00
30967;BME280;17649;51.836;8.330;2022-10-23T16:55:08;100199.84;;;17.00;100.00
30967;BME280;17649;51.836;8.330;2022-10-23T16:58:09;100208.34;;;16.92;100.00
30967;BME280;17649;51.836;8.330;2022-10-23T17:01:16;100199.66;;;16.92;100.00
30967;BME280;17649;51.836;8.330;2022-10-23T17:04:18;100181.25;;;16.84;100.00
30967;BME280;17649;51.836;8.330;2022-10-23T17:07:18;100184.16;;;16.60;100.00
30967;BME280;17649;51.836;8.330;2022-10-23T17:10:19;100184.31;;;16.58;100.00
30967;BME280;17649;51.836;8.330;2022-10-23T17:13:19;100186.63;;;16.52;100.00
30967;BME280;17649;51.836;8.330;2022-10-23T17:16:28;100194.03;;;16.47;100.00
30967;BME280;17649;51.836;8.330;2022-10-23T17:19:30;100211.88;;;16.42;100.00
30967;BME280;17649;51.836;8.330;2022-10-23T17:22:30;100234.56;;;16.41;100.00
30967;BME280;17649;51.836;8.330;2022-10-23T17:25:34;100248.72;;;16.38;100.00
30967;BME280;17649;51.836;8.330;2022-10-23T17:28:39;100257.22;;;16.40;100.00
30967;BME280;17649;51.836;8.330;2022-10-23T17:31:44;100264.38;;;16.38;100.00